createdAt,value
2023-04-12T00:00:22.177Z,9.88
2023-04-12T00:03:20.324Z,9.99
2023-04-12T00:05:55.246Z,9.84
2023-04-12T00:08:33.207Z,9.72
2023-04-12T00:11:06.423Z,9.65
2023-04-12T00:13:38.736Z,9.62
2023-04-12T00:16:15.872Z,9.57
2023-04-12T00:18:52.008Z,9.62
2023-04-12T00:21:24.245Z,9.56
2023-04-12T00:23:57.187Z,9.58
2023-04-12T00:26:29.614Z,9.66
2023-04-12T00:29:02.120Z,9.84
2023-04-12T00:31:34.427Z,9.91
2023-04-12T00:34:07.881Z,9.93
2023-04-12T00:36:40.116Z,10.00
2023-04-12T00:39:12.506Z,9.95
2023-04-12T00:41:44.587Z,10.15
2023-04-12T00:44:18.401Z,10.05
2023-04-12T00:46:51.172Z,9.86
2023-04-12T00:49:23.510Z,9.84
2023-04-12T00:51:55.831Z,9.88
2023-04-12T00:54:28.181Z,9.84
2023-04-12T00:57:01.074Z,9.82
2023-04-12T00:59:33.627Z,9.87
2023-04-12T01:02:07.436Z,9.80
2023-04-12T01:04:43.676Z,9.67
2023-04-12T01:07:26.411Z,9.75
2023-04-12T01:10:06.209Z,9.86
2023-04-12T01:12:49.049Z,9.66
2023-04-12T01:15:24.474Z,9.58
2023-04-12T01:18:02.876Z,9.51
2023-04-12T01:20:45.000Z,9.59
2023-04-12T01:23:35.411Z,9.55
2023-04-12T01:26:33.254Z,9.69
2023-04-12T01:29:12.220Z,9.62
2023-04-12T01:31:54.287Z,9.56
2023-04-12T01:34:32.403Z,9.39
2023-04-12T01:37:06.440Z,9.29
2023-04-12T01:39:38.874Z,9.39
2023-04-12T01:42:11.195Z,9.26
2023-04-12T01:44:43.356Z,9.10
2023-04-12T01:47:16.756Z,9.18
2023-04-12T01:50:04.766Z,9.24
2023-04-12T01:52:43.287Z,9.24
2023-04-12T01:55:18.023Z,9.19
2023-04-12T01:57:49.389Z,9.09
2023-04-12T02:00:23.777Z,9.16
2023-04-12T02:02:57.839Z,9.11
2023-04-12T02:05:30.533Z,9.14
2023-04-12T02:08:04.272Z,9.14
2023-04-12T02:10:40.156Z,9.19
2023-04-12T02:13:12.337Z,9.20
2023-04-12T02:15:46.108Z,9.23
2023-04-12T02:18:19.012Z,9.17
2023-04-12T02:20:52.216Z,9.11
2023-04-12T02:23:24.390Z,9.18
2023-04-12T02:25:56.596Z,9.25
2023-04-12T02:28:28.869Z,9.20
2023-04-12T02:31:01.681Z,9.34
2023-04-12T02:33:35.951Z,9.30
2023-04-12T02:36:12.297Z,9.23
2023-04-12T02:38:44.734Z,9.18
2023-04-12T02:41:21.565Z,9.14
2023-04-12T02:43:54.541Z,9.17
2023-04-12T02:46:28.718Z,9.25
2023-04-12T02:49:03.693Z,9.19
2023-04-12T02:51:39.339Z,9.29
2023-04-12T02:54:12.193Z,9.27
2023-04-12T02:56:55.189Z,9.11
2023-04-12T02:59:38.464Z,9.21
2023-04-12T03:02:31.175Z,9.25
2023-04-12T03:05:07.855Z,9.19
2023-04-12T03:07:44.094Z,9.14
2023-04-12T03:10:16.432Z,9.12
2023-04-12T03:12:53.019Z,9.17
2023-04-12T03:15:28.235Z,9.22
2023-04-12T03:18:01.555Z,9.37
2023-04-12T03:20:36.705Z,9.34
2023-04-12T03:23:11.833Z,9.41
2023-04-12T03:25:48.505Z,9.49
2023-04-12T03:28:35.974Z,9.48
2023-04-12T03:31:12.696Z,9.54
2023-04-12T03:33:49.185Z,9.51
2023-04-12T03:36:29.754Z,9.47
2023-04-12T03:39:08.289Z,9.58
2023-04-12T03:41:41.448Z,9.58
2023-04-12T03:44:14.291Z,9.56
2023-04-12T03:46:47.406Z,9.55
2023-04-12T03:49:20.616Z,9.58
2023-04-12T03:51:54.403Z,9.63
2023-04-12T03:54:26.787Z,9.70
2023-04-12T03:57:04.175Z,9.72
2023-04-12T03:59:42.638Z,9.71
2023-04-12T04:02:15.049Z,9.68
2023-04-12T04:04:52.353Z,9.75
2023-04-12T04:07:31.849Z,9.84
2023-04-12T04:10:05.758Z,9.77
2023-04-12T04:12:40.737Z,9.75
2023-04-12T04:15:17.814Z,9.60
2023-04-12T04:17:50.555Z,9.69
2023-04-12T04:20:25.075Z,9.78
2023-04-12T04:22:59.799Z,9.74
2023-04-12T04:25:33.724Z,9.80
2023-04-12T04:28:09.937Z,9.85
2023-04-12T04:30:46.121Z,9.77
2023-04-12T04:33:21.188Z,9.74
2023-04-12T04:35:56.834Z,9.72
2023-04-12T04:38:32.965Z,9.76
2023-04-12T04:41:12.422Z,9.73
2023-04-12T04:43:56.516Z,9.77
2023-04-12T04:46:32.606Z,9.80
2023-04-12T04:49:05.671Z,9.82
2023-04-12T04:51:38.396Z,9.89
2023-04-12T04:54:11.497Z,9.86
2023-04-12T04:56:45.572Z,9.89
2023-04-12T04:59:20.775Z,9.95
2023-04-12T05:01:54.809Z,9.87
2023-04-12T05:04:27.591Z,9.97
2023-04-12T05:07:00.002Z,9.98
2023-04-12T05:09:34.205Z,10.05
2023-04-12T05:12:09.746Z,10.02
2023-04-12T05:14:47.276Z,10.09
2023-04-12T05:17:22.889Z,10.09
2023-04-12T05:19:55.752Z,10.14
2023-04-12T05:22:29.646Z,10.18
2023-04-12T05:25:01.870Z,10.19
2023-04-12T05:27:35.700Z,10.20
2023-04-12T05:30:12.739Z,10.19
2023-04-12T05:32:45.470Z,10.24
2023-04-12T05:35:18.837Z,10.18
2023-04-12T05:37:52.185Z,10.09
2023-04-12T05:40:24.883Z,10.21
2023-04-12T05:42:57.627Z,10.21
2023-04-12T05:45:30.518Z,10.23
2023-04-12T05:48:07.238Z,10.32
2023-04-12T05:50:40.727Z,10.36
2023-04-12T05:53:14.467Z,10.32
2023-04-12T05:55:47.262Z,10.39
2023-04-12T05:58:20.729Z,10.46
2023-04-12T06:00:54.380Z,10.44
2023-04-12T06:03:26.949Z,10.39
2023-04-12T06:06:03.998Z,10.47
2023-04-12T06:08:38.136Z,10.54
2023-04-12T06:11:12.902Z,10.67
2023-04-12T06:13:47.312Z,10.67
2023-04-12T06:16:19.689Z,10.68
2023-04-12T06:18:52.136Z,10.75
2023-04-12T06:21:24.509Z,10.89
2023-04-12T06:23:57.306Z,10.99
2023-04-12T06:26:39.008Z,11.06
2023-04-12T06:29:13.078Z,11.10
2023-04-12T06:31:46.423Z,11.11
2023-04-12T06:34:18.759Z,11.16
2023-04-12T06:36:51.482Z,11.14
2023-04-12T06:39:23.813Z,11.15
2023-04-12T06:41:57.688Z,11.23
2023-04-12T06:44:29.992Z,11.27
2023-04-12T06:47:02.316Z,11.30
2023-04-12T06:49:34.677Z,11.33
2023-04-12T06:52:07.401Z,11.30
2023-04-12T06:54:40.553Z,11.33
2023-04-12T06:57:13.385Z,11.37
2023-04-12T06:59:46.084Z,11.36
2023-04-12T07:02:18.643Z,11.45
2023-04-12T07:04:55.091Z,11.48
2023-04-12T07:07:27.331Z,11.55
2023-04-12T07:10:00.569Z,11.54
2023-04-12T07:12:32.864Z,11.60
2023-04-12T07:15:05.984Z,11.62
2023-04-12T07:17:38.277Z,11.69
2023-04-12T07:20:12.213Z,11.72
2023-04-12T07:22:44.681Z,11.74
2023-04-12T07:25:17.402Z,11.73
2023-04-12T07:27:51.690Z,11.76
2023-04-12T07:30:23.292Z,11.78
2023-04-12T07:33:00.277Z,11.89
2023-04-12T07:35:37.825Z,11.96
2023-04-12T07:38:10.284Z,12.00
2023-04-12T07:40:42.646Z,12.00
2023-04-12T07:43:14.748Z,12.00
2023-04-12T07:45:47.249Z,12.21
2023-04-12T07:48:19.571Z,12.24
2023-04-12T07:50:51.713Z,12.23
2023-04-12T07:53:26.196Z,12.22
2023-04-12T07:55:58.953Z,12.27
2023-04-12T07:58:31.508Z,12.37
2023-04-12T08:01:03.784Z,12.44
2023-04-12T08:03:36.212Z,12.45
2023-04-12T08:06:10.364Z,12.50
2023-04-12T08:08:42.684Z,12.57
2023-04-12T08:11:15.234Z,12.62
2023-04-12T08:13:47.537Z,12.62
2023-04-12T08:16:20.305Z,12.79
2023-04-12T08:18:52.695Z,12.84
2023-04-12T08:21:25.039Z,12.94
2023-04-12T08:23:57.666Z,12.97
2023-04-12T08:26:30.332Z,13.11
2023-04-12T08:29:03.346Z,13.29
2023-04-12T08:31:35.840Z,13.38
2023-04-12T08:34:08.678Z,13.49
2023-04-12T08:36:41.137Z,13.55
2023-04-12T08:39:13.228Z,13.67
2023-04-12T08:41:46.313Z,13.82
2023-04-12T08:44:19.168Z,13.93
2023-04-12T08:46:53.547Z,14.02
2023-04-12T08:49:26.108Z,14.06
2023-04-12T08:52:00.597Z,14.10
2023-04-12T08:54:32.804Z,14.22
2023-04-12T08:57:08.341Z,14.26
2023-04-12T08:59:43.616Z,14.21
2023-04-12T09:02:18.018Z,14.19
2023-04-12T09:04:53.977Z,14.19
2023-04-12T09:07:28.267Z,14.17
2023-04-12T09:10:01.724Z,14.10
2023-04-12T09:12:34.727Z,14.06
2023-04-12T09:15:13.005Z,14.27
2023-04-12T09:17:45.746Z,14.44
2023-04-12T09:20:27.392Z,14.52
2023-04-12T09:23:01.019Z,14.48
2023-04-12T09:25:46.012Z,14.53
2023-04-12T09:28:28.854Z,14.52
2023-04-12T09:31:04.112Z,14.53
2023-04-12T09:33:40.043Z,14.52
2023-04-12T09:36:14.615Z,14.51
2023-04-12T09:39:02.244Z,14.51
2023-04-12T09:41:34.789Z,14.49
2023-04-12T09:44:07.196Z,14.28
2023-04-12T09:46:51.417Z,14.30
2023-04-12T09:49:40.090Z,14.30
2023-04-12T09:52:13.702Z,14.32
2023-04-12T09:54:48.805Z,14.23
2023-04-12T09:57:23.852Z,14.22
2023-04-12T10:00:00.504Z,14.29
2023-04-12T10:02:33.760Z,14.24
2023-04-12T10:05:07.486Z,14.29
2023-04-12T10:07:40.976Z,14.24
2023-04-12T10:10:14.987Z,14.21
2023-04-12T10:12:48.822Z,14.02
2023-04-12T10:15:22.207Z,14.10
2023-04-12T10:18:01.664Z,14.17
2023-04-12T10:20:34.033Z,14.20
2023-04-12T10:23:09.412Z,14.19
2023-04-12T10:25:42.203Z,14.22
2023-04-12T10:28:19.180Z,14.22
2023-04-12T10:30:54.653Z,14.23
2023-04-12T10:33:31.663Z,14.22
2023-04-12T10:36:12.410Z,14.18
2023-04-12T10:39:09.475Z,14.21
2023-04-12T10:42:02.366Z,14.19
2023-04-12T10:44:34.611Z,14.21
2023-04-12T10:47:07.503Z,14.13
2023-04-12T10:49:40.306Z,14.15
2023-04-12T10:52:16.658Z,14.15
2023-04-12T10:54:49.208Z,14.02
2023-04-12T10:57:49.518Z,14.09
2023-04-12T11:00:22.693Z,14.15
2023-04-12T11:03:13.374Z,14.22
2023-04-12T11:06:20.005Z,14.22
2023-04-12T11:09:27.830Z,14.22
2023-04-12T11:12:13.136Z,14.18
2023-04-12T11:14:50.298Z,14.10
2023-04-12T11:17:26.217Z,14.23
2023-04-12T11:20:01.138Z,14.21
2023-04-12T11:22:33.004Z,14.23
2023-04-12T11:25:06.138Z,14.30
2023-04-12T11:27:38.956Z,14.36
2023-04-12T11:30:13.776Z,14.26
2023-04-12T11:32:46.325Z,14.30
2023-04-12T11:35:24.378Z,14.35
2023-04-12T11:37:58.468Z,14.37
2023-04-12T11:40:32.223Z,14.37
2023-04-12T11:43:04.628Z,14.29
2023-04-12T11:45:37.261Z,14.33
2023-04-12T11:48:12.325Z,14.32
2023-04-12T11:50:44.635Z,14.28
2023-04-12T11:53:19.478Z,14.42
2023-04-12T11:55:51.111Z,14.48
2023-04-12T11:58:27.421Z,14.53
2023-04-12T12:01:01.612Z,14.62
2023-04-12T12:03:34.037Z,14.72
2023-04-12T12:06:08.467Z,14.74
2023-04-12T12:08:40.884Z,14.70
2023-04-12T12:11:13.262Z,14.78
2023-04-12T12:13:50.418Z,14.83
2023-04-12T12:16:27.988Z,15.09
2023-04-12T12:19:04.889Z,15.13
2023-04-12T12:21:37.183Z,15.31
2023-04-12T12:24:14.468Z,15.43
2023-04-12T12:26:47.064Z,15.45
2023-04-12T12:29:22.074Z,15.53
2023-04-12T12:31:54.346Z,15.70
2023-04-12T12:34:26.534Z,15.72
2023-04-12T12:36:58.677Z,15.66
2023-04-12T12:39:34.272Z,15.61
2023-04-12T12:42:07.226Z,15.48
2023-04-12T12:44:39.512Z,15.39
2023-04-12T12:47:14.320Z,15.35
2023-04-12T12:49:48.141Z,15.32
2023-04-12T12:52:20.637Z,15.22
2023-04-12T12:54:52.760Z,15.27
2023-04-12T12:57:25.150Z,15.36
2023-04-12T12:59:57.398Z,15.28
2023-04-12T13:02:29.685Z,15.23
2023-04-12T13:05:03.249Z,15.16
2023-04-12T13:07:35.630Z,15.25
2023-04-12T13:10:09.520Z,15.53
2023-04-12T13:12:42.173Z,15.82
2023-04-12T13:17:50.474Z,16.31
2023-04-12T13:20:22.546Z,16.46
2023-04-12T13:22:55.248Z,16.53
2023-04-12T13:25:27.544Z,16.72
2023-04-12T13:27:59.715Z,16.61
2023-04-12T13:30:31.922Z,16.76
2023-04-12T13:33:04.413Z,17.05
2023-04-12T13:35:36.945Z,17.24
2023-04-12T13:38:09.342Z,17.44
2023-04-12T13:40:41.926Z,17.52
2023-04-12T13:43:14.533Z,17.66
2023-04-12T13:45:46.842Z,17.71
2023-04-12T13:48:19.705Z,17.68
2023-04-12T13:50:53.632Z,17.93
2023-04-12T13:53:27.630Z,17.87
2023-04-12T13:55:59.972Z,17.88
2023-04-12T13:58:32.477Z,18.06
2023-04-12T14:01:05.757Z,18.36
2023-04-12T14:03:38.485Z,18.25
2023-04-12T14:06:11.421Z,17.83
2023-04-12T14:08:48.241Z,18.03
2023-04-12T14:11:20.848Z,17.90
2023-04-12T14:13:53.281Z,17.68
2023-04-12T14:16:25.496Z,17.71
2023-04-12T14:18:57.853Z,17.61
2023-04-12T14:21:30.197Z,17.23
2023-04-12T14:24:02.348Z,16.89
2023-04-12T14:26:35.165Z,17.01
2023-04-12T14:29:07.369Z,17.21
2023-04-12T14:31:40.396Z,17.01
2023-04-12T14:34:13.536Z,16.87
2023-04-12T14:36:45.896Z,16.89
2023-04-12T14:39:18.273Z,17.07
2023-04-12T14:41:50.866Z,17.12
2023-04-12T14:44:25.982Z,17.12
2023-04-12T14:46:59.246Z,17.20
2023-04-12T14:49:33.219Z,17.23
2023-04-12T14:52:06.597Z,17.23
2023-04-12T14:54:38.863Z,17.21
2023-04-12T14:57:11.255Z,17.14
2023-04-12T14:59:43.603Z,17.01
2023-04-12T15:02:15.894Z,17.08
2023-04-12T15:04:52.184Z,17.08
2023-04-12T15:07:24.384Z,17.09
2023-04-12T15:09:58.677Z,17.07
2023-04-12T15:12:33.619Z,17.00
2023-04-12T15:15:07.683Z,16.92
2023-04-12T15:17:39.966Z,16.86
2023-04-12T15:20:16.948Z,16.80
2023-04-12T15:22:49.277Z,16.67
2023-04-12T15:25:22.172Z,16.57
2023-04-12T15:27:54.236Z,16.51
2023-04-12T15:30:26.814Z,16.41
2023-04-12T15:32:59.782Z,16.39
2023-04-12T15:35:32.151Z,16.39
2023-04-12T15:38:04.630Z,16.36
2023-04-12T15:40:37.230Z,16.25
2023-04-12T15:43:10.003Z,16.22
2023-04-12T15:45:44.969Z,16.10
2023-04-12T15:48:15.774Z,16.13
2023-04-12T15:50:48.670Z,16.12
2023-04-12T15:53:22.647Z,16.10
2023-04-12T15:55:55.506Z,16.12
2023-04-12T15:58:28.193Z,16.14
2023-04-12T16:01:00.404Z,16.01
2023-04-12T16:03:34.009Z,15.91
2023-04-12T16:06:07.670Z,15.93
2023-04-12T16:08:39.952Z,15.87
2023-04-12T16:11:12.963Z,15.85
2023-04-12T16:13:48.221Z,15.98
2023-04-12T16:16:22.407Z,15.93
2023-04-12T16:18:55.942Z,15.98
2023-04-12T16:21:30.339Z,16.04
2023-04-12T16:24:06.189Z,15.98
2023-04-12T16:26:39.647Z,15.83
2023-04-12T16:29:13.363Z,15.87
2023-04-12T16:31:45.659Z,15.82
2023-04-12T16:34:21.982Z,15.80
2023-04-12T16:36:54.667Z,15.75
2023-04-12T16:39:29.267Z,15.69
2023-04-12T16:42:04.242Z,15.63
2023-04-12T16:44:36.893Z,15.55
2023-04-12T16:47:12.315Z,15.53
2023-04-12T16:49:44.554Z,15.52
2023-04-12T16:52:16.961Z,15.38
2023-04-12T16:54:49.393Z,15.36
2023-04-12T16:57:21.719Z,15.29
2023-04-12T16:59:53.907Z,15.20
2023-04-12T17:02:26.810Z,15.18
2023-04-12T17:04:59.733Z,15.15
2023-04-12T17:07:32.181Z,15.09
2023-04-12T17:10:04.512Z,15.06
2023-04-12T17:12:37.145Z,14.95
2023-04-12T17:15:12.005Z,14.90
2023-04-12T17:17:44.694Z,14.86
2023-04-12T17:20:18.559Z,14.81
2023-04-12T17:22:53.250Z,14.73
2023-04-12T17:25:25.885Z,14.60
2023-04-12T17:28:01.550Z,14.56
2023-04-12T17:30:34.278Z,14.56
2023-04-12T17:33:07.938Z,14.51
2023-04-12T17:35:41.775Z,14.46
2023-04-12T17:38:13.927Z,14.44
2023-04-12T17:40:46.324Z,14.39
2023-04-12T17:43:18.883Z,14.38
2023-04-12T17:45:51.415Z,14.33
2023-04-12T17:48:24.054Z,14.31
2023-04-12T17:50:56.345Z,14.25
2023-04-12T17:53:28.649Z,14.23
2023-04-12T17:56:01.040Z,14.18
2023-04-12T17:58:34.162Z,14.12
2023-04-12T18:01:07.370Z,14.08
2023-04-12T18:03:40.063Z,14.05
2023-04-12T18:06:13.389Z,14.00
2023-04-12T18:08:47.113Z,13.95
2023-04-12T18:11:19.319Z,13.89
2023-04-12T18:13:52.460Z,13.88
2023-04-12T18:16:25.314Z,13.84
2023-04-12T18:18:58.016Z,13.77
2023-04-12T18:21:31.406Z,13.74
2023-04-12T18:24:04.730Z,13.72
2023-04-12T18:26:37.189Z,13.68
2023-04-12T18:29:11.771Z,13.64
2023-04-12T18:31:44.284Z,13.61
2023-04-12T18:34:18.903Z,13.58
2023-04-12T18:36:49.937Z,13.53
2023-04-12T18:39:22.220Z,13.53
2023-04-12T18:41:54.749Z,13.50
2023-04-12T18:44:27.668Z,13.48
2023-04-12T18:47:00.395Z,13.44
2023-04-12T18:49:33.160Z,13.42
2023-04-12T18:52:05.548Z,13.36
2023-04-12T18:54:37.923Z,13.30
2023-04-12T18:57:10.322Z,13.24
2023-04-12T18:59:44.864Z,13.27
2023-04-12T19:02:18.344Z,13.25
2023-04-12T19:04:51.003Z,13.24
2023-04-12T19:07:23.399Z,13.19
2023-04-12T19:09:55.862Z,13.13
2023-04-12T19:12:29.271Z,13.10
2023-04-12T19:15:01.861Z,13.11
2023-04-12T19:17:37.334Z,13.10
2023-04-12T19:20:11.439Z,13.08
2023-04-12T19:22:44.015Z,12.98
2023-04-12T19:25:19.582Z,13.00
2023-04-12T19:27:52.339Z,13.02
2023-04-12T19:30:24.781Z,13.03
2023-04-12T19:32:57.037Z,12.99
2023-04-12T19:35:32.881Z,12.97
2023-04-12T19:38:06.149Z,12.96
2023-04-12T19:40:38.629Z,12.93
2023-04-12T19:43:14.194Z,12.93
2023-04-12T19:45:47.006Z,12.93
2023-04-12T19:48:20.079Z,12.84
2023-04-12T19:50:54.907Z,12.92
2023-04-12T19:53:27.084Z,12.90
2023-04-12T19:56:00.774Z,12.90
2023-04-12T19:58:33.616Z,12.89
2023-04-12T20:01:07.135Z,12.79
2023-04-12T20:03:43.968Z,12.85
2023-04-12T20:06:16.231Z,12.88
2023-04-12T20:08:48.844Z,12.87
2023-04-12T20:11:21.592Z,12.88
2023-04-12T20:13:53.824Z,12.71
2023-04-12T20:16:26.250Z,12.78
2023-04-12T20:18:59.306Z,12.74
2023-04-12T20:21:34.282Z,12.82
2023-04-12T20:24:08.350Z,12.82
2023-04-12T20:26:40.556Z,12.87
2023-04-12T20:29:12.767Z,12.81
2023-04-12T20:31:47.903Z,12.79
2023-04-12T20:34:21.264Z,12.78
2023-04-12T20:36:54.972Z,12.78
2023-04-12T20:39:31.244Z,12.77
2023-04-12T20:42:03.571Z,12.70
2023-04-12T20:44:36.096Z,12.84
2023-04-12T20:47:09.138Z,12.72
2023-04-12T20:49:42.504Z,12.76
2023-04-12T20:52:17.032Z,12.75
2023-04-12T20:54:49.320Z,12.77
2023-04-12T20:57:21.778Z,12.78
2023-04-12T20:59:55.529Z,12.68
2023-04-12T21:02:28.574Z,12.76
2023-04-12T21:05:01.119Z,12.76
2023-04-12T21:07:34.751Z,12.76
2023-04-12T21:10:08.540Z,12.77
2023-04-12T21:12:40.972Z,12.77
2023-04-12T21:15:14.720Z,12.77
2023-04-12T21:17:46.913Z,12.78
2023-04-12T21:20:19.711Z,12.78
2023-04-12T21:22:53.776Z,12.76
2023-04-12T21:25:26.355Z,12.77
2023-04-12T21:27:58.462Z,12.76
2023-04-12T21:30:31.285Z,12.77
2023-04-12T21:33:05.365Z,12.73
2023-04-12T21:35:38.270Z,12.76
2023-04-12T21:38:10.882Z,12.66
2023-04-12T21:40:43.227Z,12.71
2023-04-12T21:43:15.671Z,12.72
2023-04-12T21:45:48.006Z,12.63
2023-04-12T21:48:20.462Z,12.61
2023-04-12T21:50:52.821Z,12.68
2023-04-12T21:53:25.258Z,12.66
2023-04-12T21:55:57.770Z,12.69
2023-04-12T21:58:30.121Z,12.47
2023-04-12T22:01:02.850Z,12.60
2023-04-12T22:03:35.011Z,12.58
2023-04-12T22:06:08.852Z,12.60
2023-04-12T22:08:44.163Z,12.53
2023-04-12T22:11:16.838Z,12.55
2023-04-12T22:13:49.066Z,12.41
2023-04-12T22:16:23.060Z,12.55
2023-04-12T22:18:55.916Z,12.54
2023-04-12T22:21:28.583Z,12.51
2023-04-12T22:24:01.370Z,12.50
2023-04-12T22:26:34.360Z,12.51
2023-04-12T22:29:06.649Z,12.49
2023-04-12T22:31:39.808Z,12.44
2023-04-12T22:34:11.958Z,12.42
2023-04-12T22:36:45.170Z,12.43
2023-04-12T22:39:18.190Z,12.41
2023-04-12T22:41:53.163Z,12.37
2023-04-12T22:44:26.157Z,12.46
2023-04-12T22:46:58.901Z,12.43
2023-04-12T22:49:31.998Z,12.43
2023-04-12T22:52:04.471Z,12.41
2023-04-12T22:54:37.244Z,12.42
2023-04-12T22:57:09.270Z,12.44
2023-04-12T22:59:41.540Z,12.41
2023-04-12T23:02:14.033Z,12.40
2023-04-12T23:04:49.120Z,12.44
2023-04-12T23:07:19.907Z,12.44
2023-04-12T23:09:52.723Z,12.45
2023-04-12T23:12:25.678Z,12.46
2023-04-12T23:14:58.054Z,12.40
2023-04-12T23:17:30.673Z,12.44
2023-04-12T23:20:05.755Z,12.49
2023-04-12T23:22:57.269Z,12.48
2023-04-12T23:25:39.496Z,12.46
2023-04-12T23:28:14.174Z,12.43
2023-04-12T23:30:48.951Z,12.45
2023-04-12T23:33:22.745Z,12.47
2023-04-12T23:35:56.194Z,12.48
2023-04-12T23:38:32.734Z,12.46
2023-04-12T23:41:06.576Z,12.38
2023-04-12T23:43:38.678Z,12.42
2023-04-12T23:46:12.212Z,12.44
2023-04-12T23:48:44.636Z,12.41
2023-04-12T23:51:16.876Z,12.40
2023-04-12T23:53:49.433Z,12.38
2023-04-12T23:56:22.101Z,12.38
2023-04-12T23:58:54.411Z,12.43
